createdAt,value
2023-04-01T00:04:29.637Z,214446.00
2023-04-01T00:10:32.097Z,214488.00
2023-04-01T00:16:36.921Z,214515.00
2023-04-01T00:22:39.492Z,214537.00
2023-04-01T00:28:42.061Z,214551.00
2023-04-01T00:34:45.678Z,214551.00
2023-04-01T00:40:48.309Z,214523.00
2023-04-01T00:46:51.394Z,214584.00
2023-04-01T00:52:54.229Z,214559.00
2023-04-01T00:58:58.987Z,214551.00
2023-04-01T01:05:01.752Z,214502.00
2023-04-01T01:11:06.358Z,214454.00
2023-04-01T01:17:32.849Z,214404.00
2023-04-01T01:23:44.720Z,214390.00
2023-04-01T01:29:56.424Z,214382.00
2023-04-01T01:36:02.491Z,214390.00
2023-04-01T01:42:09.686Z,214446.00
2023-04-01T01:48:12.837Z,214502.00
2023-04-01T01:54:16.719Z,214537.00
2023-04-01T02:00:20.609Z,214606.00
2023-04-01T02:06:26.754Z,214632.00
2023-04-01T02:12:30.468Z,214669.00
2023-04-01T02:18:34.513Z,214648.00
2023-04-01T02:24:39.252Z,214604.00
2023-04-01T02:30:44.243Z,214537.00
2023-04-01T02:36:46.898Z,214515.00
2023-04-01T02:42:49.247Z,214488.00
2023-04-01T02:48:51.763Z,214510.00
2023-04-01T02:54:54.173Z,214510.00
2023-04-01T03:00:56.870Z,214466.00
2023-04-01T03:06:59.346Z,214398.00
2023-04-01T03:13:02.136Z,214355.00
2023-04-01T03:19:04.394Z,214313.00
2023-04-01T03:25:09.000Z,214225.00
2023-04-01T03:31:11.913Z,214155.00
2023-04-01T03:37:22.035Z,214099.00
2023-04-01T03:43:25.092Z,214099.00
2023-04-01T03:49:27.860Z,214072.00
2023-04-01T03:55:30.265Z,214078.00
2023-04-01T04:01:32.872Z,213997.00
2023-04-01T04:07:36.105Z,213936.00
2023-04-01T04:13:42.062Z,213934.00
2023-04-01T04:19:44.973Z,213961.00
2023-04-01T04:26:00.996Z,214033.00
2023-04-01T04:32:04.901Z,214127.00
2023-04-01T04:38:07.639Z,214260.00
2023-04-01T04:44:10.129Z,214466.00
2023-04-01T04:50:13.223Z,214502.00
2023-04-01T04:56:21.460Z,214606.00
2023-04-01T05:02:39.808Z,214618.00
2023-04-01T05:08:44.267Z,214681.00
2023-04-01T05:14:46.638Z,214703.00
2023-04-01T05:20:51.582Z,214773.00
2023-04-01T05:26:55.831Z,214841.00
2023-04-01T05:32:59.673Z,214841.00
2023-04-01T05:39:02.592Z,214814.00
2023-04-01T05:45:05.461Z,214919.00
2023-04-01T05:51:42.736Z,214952.00
2023-04-01T05:57:47.451Z,215098.00
2023-04-01T06:03:49.912Z,215112.00
2023-04-01T06:09:52.809Z,215112.00
2023-04-01T06:16:18.067Z,215146.00
2023-04-01T06:22:58.307Z,215162.00
2023-04-01T06:29:04.938Z,215247.00
2023-04-01T06:35:32.644Z,215369.00
2023-04-01T06:41:41.857Z,215289.00
2023-04-01T06:48:05.943Z,215413.00
2023-04-01T06:54:43.629Z,215615.00
2023-04-01T07:01:23.367Z,215720.00
2023-04-01T07:07:51.859Z,215833.00
2023-04-01T07:14:05.057Z,215957.00
2023-04-01T07:20:17.513Z,216035.00
2023-04-01T07:26:24.896Z,216191.00
2023-04-01T07:33:00.741Z,216288.00
2023-04-01T07:39:40.745Z,216400.00
2023-04-01T07:46:22.669Z,216458.00
2023-04-01T07:52:43.360Z,216507.00
2023-04-01T07:59:07.918Z,216683.00
2023-04-01T08:05:42.966Z,217022.00
2023-04-01T08:12:07.688Z,217524.00
2023-04-01T08:18:40.734Z,217738.00
2023-04-01T08:24:48.143Z,217801.00
2023-04-01T08:31:05.523Z,217867.00
2023-04-01T08:37:15.558Z,218051.00
2023-04-01T08:43:25.171Z,218146.00
2023-04-01T08:49:57.936Z,218009.00
2023-04-01T08:56:44.383Z,218001.00
2023-04-01T09:03:17.588Z,217924.00
2023-04-01T09:09:33.694Z,217633.00
2023-04-01T09:15:59.292Z,217433.00
2023-04-01T09:22:42.621Z,217392.00
2023-04-01T09:29:04.017Z,217227.00
2023-04-01T09:35:26.295Z,217189.00
2023-04-01T09:41:48.263Z,217093.00
2023-04-01T09:48:39.619Z,217143.00
2023-04-01T09:55:21.108Z,217392.00
2023-04-01T10:01:58.768Z,217765.00
2023-04-01T10:08:33.584Z,218138.00
2023-04-01T10:15:20.802Z,218773.00
2023-04-01T10:21:35.383Z,219119.00
2023-04-01T10:28:11.687Z,218581.00
2023-04-01T10:35:03.530Z,218387.00
2023-04-01T10:41:18.333Z,218051.00
2023-04-01T10:48:16.772Z,218587.00
2023-04-01T10:54:30.928Z,220509.00
2023-04-01T11:01:19.020Z,220108.00
2023-04-01T11:08:07.092Z,219534.00
2023-04-01T11:14:38.053Z,219638.00
2023-04-01T11:20:47.025Z,220166.00
2023-04-01T11:26:55.925Z,219861.00
2023-04-01T11:33:27.596Z,219283.00
2023-04-01T11:39:49.168Z,219083.00
2023-04-01T11:46:54.257Z,219616.00
2023-04-01T11:53:35.718Z,219905.00
2023-04-01T11:59:59.272Z,219436.00
2023-04-01T12:06:18.057Z,218980.00
2023-04-01T12:13:00.024Z,218918.00
2023-04-01T12:19:20.982Z,219024.00
2023-04-01T12:25:54.773Z,219472.00
2023-04-01T12:32:36.373Z,219638.00
2023-04-01T12:38:57.633Z,219681.00
2023-04-01T12:45:15.623Z,219191.00
2023-04-01T12:51:42.882Z,219263.00
2023-04-01T12:58:03.646Z,218918.00
2023-04-01T13:04:27.725Z,218581.00
2023-04-01T13:10:59.656Z,218521.00
2023-04-01T13:17:14.657Z,218553.00
2023-04-01T13:23:28.977Z,218458.00
2023-04-01T13:29:41.416Z,218423.00
2023-04-01T13:36:02.387Z,218501.00
2023-04-01T13:42:26.253Z,218395.00
2023-04-01T13:48:28.820Z,218345.00
2023-04-01T13:54:48.779Z,218466.00
2023-04-01T14:01:20.275Z,218486.00
2023-04-01T14:07:54.257Z,218409.00
2023-04-01T14:14:21.034Z,218258.00
2023-04-01T14:20:39.569Z,217943.00
2023-04-01T14:27:06.813Z,217708.00
2023-04-01T14:33:28.028Z,217496.00
2023-04-01T14:40:07.713Z,217354.00
2023-04-01T14:46:13.064Z,217249.00
2023-04-01T14:52:27.156Z,217235.00
2023-04-01T14:58:44.093Z,217205.00
2023-04-01T15:05:17.585Z,217151.00
2023-04-01T15:11:47.876Z,217057.00
2023-04-01T15:18:05.206Z,217030.00
2023-04-01T15:24:28.075Z,216986.00
2023-04-01T15:30:48.252Z,216928.00
2023-04-01T15:37:29.031Z,216840.00
2023-04-01T15:43:34.391Z,216854.00
2023-04-01T15:49:43.540Z,216824.00
2023-04-01T15:55:49.135Z,216810.00
2023-04-01T16:02:08.987Z,216788.00
2023-04-01T16:08:14.243Z,216719.00
2023-04-01T16:14:28.600Z,216675.00
2023-04-01T16:20:55.346Z,216647.00
2023-04-01T16:27:13.083Z,216647.00
2023-04-01T16:33:31.865Z,216613.00
2023-04-01T16:39:45.134Z,216607.00
2023-04-01T16:46:07.014Z,216599.00
2023-04-01T16:52:12.282Z,216613.00
2023-04-01T16:58:44.298Z,216599.00
2023-04-01T17:04:48.392Z,216599.00
2023-04-01T17:11:02.635Z,216529.00
2023-04-01T17:17:26.819Z,216472.00
2023-04-01T17:23:45.391Z,216430.00
2023-04-01T17:30:01.790Z,216420.00
2023-04-01T17:36:40.795Z,216420.00
2023-04-01T17:43:07.301Z,216392.00
2023-04-01T17:49:28.477Z,216345.00
2023-04-01T17:55:39.568Z,216312.00
2023-04-01T18:02:14.721Z,216268.00
2023-04-01T18:08:19.181Z,216224.00
2023-04-01T18:14:33.323Z,216224.00
2023-04-01T18:20:38.453Z,216191.00
2023-04-01T18:26:45.343Z,216183.00
2023-04-01T18:33:04.201Z,216183.00
2023-04-01T18:39:14.715Z,216183.00
2023-04-01T18:45:24.805Z,216191.00
2023-04-01T18:51:37.501Z,216238.00
2023-04-01T18:57:54.400Z,216191.00
2023-04-01T19:04:30.765Z,216139.00
2023-04-01T19:10:46.985Z,216064.00
2023-04-01T19:16:58.068Z,216015.00
2023-04-01T19:23:25.898Z,215981.00
2023-04-01T19:29:57.440Z,215929.00
2023-04-01T19:36:27.966Z,215909.00
2023-04-01T19:42:30.363Z,215805.00
2023-04-01T19:48:46.898Z,215789.00
2023-04-01T19:55:10.491Z,215756.00
2023-04-01T20:01:17.440Z,215728.00
2023-04-01T20:07:54.134Z,215656.00
2023-04-01T20:14:27.844Z,215656.00
2023-04-01T20:20:32.112Z,215596.00
2023-04-01T20:26:39.340Z,215615.00
2023-04-01T20:32:59.690Z,215623.00
2023-04-01T20:39:38.530Z,215596.00
2023-04-01T20:45:56.794Z,215560.00
2023-04-01T20:52:15.479Z,215568.00
2023-04-01T20:58:45.864Z,215582.00
2023-04-01T21:04:51.572Z,215532.00
2023-04-01T21:11:07.403Z,215554.00
2023-04-01T21:17:38.901Z,215552.00
2023-04-01T21:23:59.742Z,215532.00
2023-04-01T21:30:41.536Z,215552.00
2023-04-01T21:37:15.529Z,215489.00
2023-04-01T21:43:36.124Z,215469.00
2023-04-01T21:50:05.777Z,215441.00
2023-04-01T21:56:32.934Z,215427.00
2023-04-01T22:03:10.421Z,215419.00
2023-04-01T22:09:39.401Z,215413.00
2023-04-01T22:16:04.506Z,215413.00
2023-04-01T22:22:19.266Z,215405.00
2023-04-01T22:28:33.615Z,215469.00
2023-04-01T22:34:51.079Z,215449.00
2023-04-01T22:41:14.892Z,215413.00
2023-04-01T22:47:27.717Z,215413.00
2023-04-01T22:54:00.842Z,215413.00
2023-04-01T23:00:18.331Z,215419.00
2023-04-01T23:06:28.021Z,215419.00
2023-04-01T23:12:31.809Z,215427.00
2023-04-01T23:18:46.962Z,215469.00
2023-04-01T23:24:56.716Z,215329.00
2023-04-01T23:30:58.966Z,215225.00
2023-04-01T23:37:10.157Z,215140.00
2023-04-01T23:43:40.506Z,215058.00
2023-04-01T23:50:13.816Z,214952.00
2023-04-01T23:56:19.675Z,214833.00
